Time;durP1;ratioP1;P1;durP2;ratioP2;P2;SDS_P1;SDS_P2;PMS_P1;PMS_P2;Temp;Humidity;BMP_temperature;BMP_pressure;BME280_temperature;BME280_humidity;BME280_pressure;Samples;Min_cycle;Max_cycle;Signal;HPM_P1;HPM_P2
2022/03/03 00:02:23;;;;;;;27.30;14.43;;;0.40;99.90;;;;;;5011850;28;21009;-70
2022/03/03 00:04:50;;;;;;;30.47;15.00;;;0.40;99.90;;;;;;5010948;28;20548;-70
2022/03/03 00:07:16;;;;;;;28.40;14.80;;;0.30;99.90;;;;;;5012395;28;20497;-70
2022/03/03 00:09:43;;;;;;;37.13;14.93;;;0.30;99.90;;;;;;5012042;28;20875;-70
2022/03/03 00:12:10;;;;;;;29.83;15.73;;;0.30;99.90;;;;;;5010215;28;20454;-71
2022/03/03 00:14:37;;;;;;;27.90;15.00;;;0.30;99.90;;;;;;5010398;28;20454;-70
2022/03/03 00:17:04;;;;;;;23.73;14.53;;;0.40;99.90;;;;;;5011856;28;20486;-71
2022/03/03 00:19:32;;;;;;;28.83;14.40;;;0.40;99.90;;;;;;5011788;28;20450;-70
2022/03/03 00:21:59;;;;;;;30.13;15.33;;;0.40;99.90;;;;;;5011670;28;20458;-70
2022/03/03 00:24:26;;;;;;;31.93;15.70;;;0.50;99.90;;;;;;5011530;28;21033;-70
2022/03/03 00:26:53;;;;;;;26.33;14.50;;;0.50;99.90;;;;;;5011619;28;20462;-71
2022/03/03 00:29:19;;;;;;;24.23;14.47;;;0.50;99.90;;;;;;5011653;28;20512;-70
2022/03/03 00:31:46;;;;;;;28.57;14.63;;;0.40;99.90;;;;;;5012085;28;20450;-70
2022/03/03 00:34:13;;;;;;;27.23;13.93;;;0.40;99.90;;;;;;5011489;28;20454;-71
2022/03/03 00:36:41;;;;;;;28.53;14.80;;;0.40;99.90;;;;;;5012046;28;20518;-71
2022/03/03 00:39:08;;;;;;;25.83;13.97;;;0.40;99.90;;;;;;5011740;28;20501;-70
2022/03/03 00:41:35;;;;;;;26.37;14.40;;;0.30;99.90;;;;;;5011444;28;20458;-71
2022/03/03 00:44:02;;;;;;;26.67;14.60;;;0.30;99.90;;;;;;5011796;28;20961;-71
2022/03/03 00:46:29;;;;;;;26.13;13.97;;;0.20;99.90;;;;;;5012124;28;20470;-71
2022/03/03 00:48:56;;;;;;;28.00;13.97;;;0.20;99.90;;;;;;5011374;28;20462;-71
2022/03/03 00:51:23;;;;;;;25.20;14.00;;;0.10;99.90;;;;;;5010027;28;20458;-71
2022/03/03 00:53:51;;;;;;;26.50;13.47;;;0.10;99.90;;;;;;5011176;28;20725;-71
2022/03/03 00:56:18;;;;;;;27.43;14.57;;;0.10;99.90;;;;;;5010993;28;21025;-71
2022/03/03 00:58:45;;;;;;;28.47;14.47;;;0.00;99.90;;;;;;5011885;28;20447;-71
2022/03/03 01:01:12;;;;;;;26.23;13.73;;;-0.10;99.90;;;;;;5011443;28;20500;-71
2022/03/03 01:03:39;;;;;;;24.53;13.53;;;-0.10;99.90;;;;;;5011592;28;20455;-71
2022/03/03 01:06:06;;;;;;;28.33;13.93;;;-0.10;99.90;;;;;;5011101;28;20482;-71
2022/03/03 01:08:33;;;;;;;30.27;15.67;;;0.00;99.90;;;;;;5011317;28;20458;-71
2022/03/03 01:11:01;;;;;;;26.60;13.93;;;-0.10;99.90;;;;;;5010485;28;20462;-71
2022/03/03 01:13:28;;;;;;;25.00;13.43;;;-0.20;99.90;;;;;;5010685;28;20463;-71
2022/03/03 01:15:55;;;;;;;26.83;13.80;;;-0.20;99.90;;;;;;5009554;28;20913;-71
2022/03/03 01:18:22;;;;;;;27.77;14.80;;;-0.20;99.90;;;;;;5011214;28;20561;-71
2022/03/03 01:20:49;;;;;;;29.77;14.40;;;-0.30;99.90;;;;;;5010222;28;20569;-71
2022/03/03 01:23:16;;;;;;;23.53;14.20;;;-0.40;99.90;;;;;;5010689;28;20966;-71
2022/03/03 01:25:43;;;;;;;35.60;14.37;;;-0.40;99.90;;;;;;5011072;28;20462;-71
2022/03/03 01:28:11;;;;;;;22.70;13.50;;;-0.50;99.90;;;;;;5010886;28;20884;-71
2022/03/03 01:30:37;;;;;;;26.63;14.50;;;-0.50;99.90;;;;;;5010733;28;20458;-71
2022/03/03 01:33:05;;;;;;;26.77;13.90;;;-0.50;99.90;;;;;;5010538;28;20459;-71
2022/03/03 01:35:31;;;;;;;23.53;12.90;;;-0.50;99.90;;;;;;5010387;28;20481;-71
2022/03/03 01:37:58;;;;;;;26.13;13.97;;;-0.50;99.90;;;;;;5011101;28;20450;-71
2022/03/03 01:40:25;;;;;;;25.70;13.40;;;-0.50;99.90;;;;;;5010725;28;20450;-71
2022/03/03 01:42:52;;;;;;;24.30;14.30;;;-0.50;99.90;;;;;;5010476;28;20476;-71
2022/03/03 01:45:20;;;;;;;24.40;13.27;;;-0.50;99.90;;;;;;5010624;28;20524;-71
2022/03/03 01:47:47;;;;;;;28.63;13.07;;;-0.50;99.90;;;;;;5010859;28;20454;-71
2022/03/03 01:50:14;;;;;;;28.43;14.67;;;-0.50;99.90;;;;;;5010285;28;20454;-71
2022/03/03 01:52:41;;;;;;;26.70;14.17;;;-0.60;99.90;;;;;;5010246;28;21034;-71
2022/03/03 01:55:09;;;;;;;28.10;14.30;;;-0.60;99.90;;;;;;5010496;28;20990;-71
2022/03/03 01:57:37;;;;;;;26.70;14.70;;;-0.60;99.90;;;;;;5010412;28;20974;-71
2022/03/03 02:00:06;;;;;;;33.93;15.67;;;-0.60;99.90;;;;;;5010219;28;21125;-71
2022/03/03 02:02:34;;;;;;;26.77;15.33;;;-0.60;99.90;;;;;;5010372;28;20458;-71
2022/03/03 02:05:01;;;;;;;30.07;13.70;;;-0.60;99.90;;;;;;5010263;28;20873;-71
2022/03/03 02:07:28;;;;;;;28.80;14.90;;;-0.60;99.90;;;;;;5010651;28;20450;-71
2022/03/03 02:09:54;;;;;;;26.70;14.80;;;-0.60;99.90;;;;;;5010504;28;20504;-71
2022/03/03 02:12:21;;;;;;;30.00;15.10;;;-0.60;99.90;;;;;;5010165;28;20469;-71
2022/03/03 02:14:49;;;;;;;26.43;15.10;;;-0.60;99.90;;;;;;5010121;28;20451;-71
2022/03/03 02:17:16;;;;;;;33.00;14.60;;;-0.60;99.90;;;;;;5010701;28;20551;-72
2022/03/03 02:19:45;;;;;;;28.23;15.27;;;-0.60;99.90;;;;;;5009781;28;20458;-71
2022/03/03 02:22:13;;;;;;;32.13;15.23;;;-0.50;99.90;;;;;;5010494;28;20501;-71
2022/03/03 02:24:40;;;;;;;26.07;14.30;;;-0.50;99.90;;;;;;5010065;28;20454;-72
2022/03/03 02:27:08;;;;;;;28.43;14.87;;;-0.40;99.90;;;;;;5012035;28;20982;-72
2022/03/03 02:29:36;;;;;;;33.80;15.23;;;-0.60;99.90;;;;;;5013808;28;20875;-72
2022/03/03 02:32:04;;;;;;;27.80;14.90;;;-0.60;99.90;;;;;;5013728;28;20500;-72
2022/03/03 02:34:31;;;;;;;25.73;15.03;;;-0.70;99.90;;;;;;5014204;28;20484;-72
2022/03/03 02:36:57;;;;;;;28.40;15.40;;;-0.70;99.90;;;;;;5013798;28;20485;-72
2022/03/03 02:39:25;;;;;;;28.80;15.53;;;-0.70;99.90;;;;;;5010075;28;20504;-72
2022/03/03 02:41:52;;;;;;;30.23;14.73;;;-0.70;99.90;;;;;;5013226;28;20454;-72
2022/03/03 02:44:19;;;;;;;33.93;14.27;;;-0.70;99.90;;;;;;5013707;28;20942;-72
2022/03/03 02:46:46;;;;;;;34.63;15.37;;;-0.70;99.90;;;;;;5013439;28;20482;-72
2022/03/03 02:49:12;;;;;;;29.37;14.60;;;-0.80;99.90;;;;;;5013728;28;20454;-72
2022/03/03 02:51:39;;;;;;;31.23;15.60;;;-0.80;99.90;;;;;;5013890;28;20469;-72
2022/03/03 02:54:06;;;;;;;28.83;16.00;;;-0.80;99.90;;;;;;5013757;28;20870;-72
2022/03/03 02:57:53;;;;;;;26.53;15.20;;;-0.90;99.90;;;;;;5013386;28;20485;-73
2022/03/03 02:59:21;;;;;;;32.40;16.53;;;-0.90;99.90;;;;;;5013128;28;20785;-73
2022/03/03 03:01:47;;;;;;;29.90;15.67;;;-0.90;99.90;;;;;;5013044;28;20872;-73
2022/03/03 03:04:14;;;;;;;29.17;14.80;;;-1.00;99.90;;;;;;5012974;28;20520;-73
2022/03/03 03:06:41;;;;;;;26.80;15.30;;;-1.00;99.90;;;;;;5013939;28;20532;-73
2022/03/03 03:09:08;;;;;;;27.90;16.00;;;-0.90;99.90;;;;;;5012989;28;20486;-73
2022/03/03 03:11:36;;;;;;;31.03;15.70;;;-0.90;99.90;;;;;;5013611;28;20512;-73
2022/03/03 03:14:03;;;;;;;26.90;16.07;;;-0.90;99.90;;;;;;5012839;28;20466;-73
2022/03/03 03:16:29;;;;;;;27.60;14.93;;;-0.90;99.90;;;;;;5013370;28;20493;-73
2022/03/03 03:18:56;;;;;;;30.33;15.57;;;-0.80;99.90;;;;;;5012226;28;20821;-73
2022/03/03 03:21:23;;;;;;;29.70;15.10;;;-0.90;99.90;;;;;;5012867;28;20803;-73
2022/03/03 03:23:50;;;;;;;26.63;14.47;;;-0.90;99.90;;;;;;5012912;28;20454;-73
2022/03/03 03:26:16;;;;;;;25.37;15.30;;;-1.00;99.90;;;;;;5012785;28;20482;-73
2022/03/03 03:28:44;;;;;;;31.30;15.43;;;-1.00;99.90;;;;;;5010885;28;20516;-73
2022/03/03 03:31:11;;;;;;;25.70;15.00;;;-1.00;99.90;;;;;;5012677;28;20472;-73
2022/03/03 03:33:37;;;;;;;30.07;15.70;;;-1.00;99.90;;;;;;5012397;28;20872;-73
2022/03/03 03:36:04;;;;;;;28.70;15.53;;;-1.00;99.90;;;;;;5012798;28;20474;-73
2022/03/03 03:38:31;;;;;;;27.50;14.80;;;-1.00;99.90;;;;;;5011734;28;20942;-73
2022/03/03 03:40:58;;;;;;;26.93;16.27;;;-1.00;99.90;;;;;;5012634;28;20454;-73
2022/03/03 03:43:25;;;;;;;26.80;15.60;;;-1.00;99.90;;;;;;4997138;28;20459;-73
2022/03/03 03:45:53;;;;;;;30.73;16.07;;;-1.10;99.90;;;;;;5012642;28;20544;-73
2022/03/03 03:48:19;;;;;;;29.53;16.23;;;-1.00;99.90;;;;;;5012316;28;21014;-73
2022/03/03 03:50:46;;;;;;;28.40;15.90;;;-1.10;99.90;;;;;;5012801;28;20544;-73
2022/03/03 03:53:13;;;;;;;28.07;15.97;;;-1.00;99.90;;;;;;5011837;28;21016;-73
2022/03/03 03:55:39;;;;;;;26.70;15.13;;;-1.00;99.90;;;;;;5012824;28;20483;-73
2022/03/03 03:58:06;;;;;;;24.97;14.73;;;-0.90;99.90;;;;;;5012179;28;20482;-73
2022/03/03 04:00:33;;;;;;;27.10;15.17;;;-0.90;99.90;;;;;;5012447;28;20487;-73
2022/03/03 04:03:01;;;;;;;30.73;15.20;;;-0.80;99.90;;;;;;5012039;28;20458;-73
2022/03/03 04:05:27;;;;;;;30.20;15.07;;;-0.80;99.90;;;;;;5012262;28;20485;-73
2022/03/03 04:07:54;;;;;;;28.37;14.70;;;-0.90;99.90;;;;;;5012229;28;20454;-73
2022/03/03 04:10:21;;;;;;;28.83;14.77;;;-0.90;99.90;;;;;;5012090;28;20480;-73
2022/03/03 04:12:47;;;;;;;26.40;14.90;;;-1.00;99.90;;;;;;5011583;28;20969;-73
2022/03/03 04:15:14;;;;;;;23.40;13.17;;;-1.00;99.90;;;;;;5009887;28;20532;-73
2022/03/03 04:17:41;;;;;;;23.57;14.27;;;-0.90;99.90;;;;;;5011903;28;21010;-73
2022/03/03 04:20:10;;;;;;;23.77;13.67;;;-0.90;99.90;;;;;;5011539;28;20450;-73
2022/03/03 04:22:37;;;;;;;29.60;14.90;;;-1.00;99.90;;;;;;5011941;28;20500;-73
2022/03/03 04:25:04;;;;;;;24.83;14.63;;;-1.00;99.90;;;;;;5011810;28;20450;-73
2022/03/03 04:27:31;;;;;;;31.60;15.50;;;-1.10;99.90;;;;;;5011999;28;20871;-73
2022/03/03 04:29:58;;;;;;;31.17;16.20;;;-1.10;99.90;;;;;;5011977;28;20501;-73
2022/03/03 04:32:24;;;;;;;31.50;15.53;;;-1.10;99.90;;;;;;5012080;28;20918;-73
2022/03/03 04:34:51;;;;;;;34.10;15.40;;;-1.20;99.90;;;;;;5011800;28;20485;-73
2022/03/03 04:37:19;;;;;;;27.67;15.17;;;-1.30;99.90;;;;;;5011934;28;20933;-74
2022/03/03 04:39:45;;;;;;;29.97;16.40;;;-1.30;99.90;;;;;;5011014;28;20528;-73
2022/03/03 04:42:12;;;;;;;29.30;14.73;;;-1.40;99.90;;;;;;5011778;28;21040;-73
2022/03/03 04:44:39;;;;;;;29.40;14.30;;;-1.40;99.90;;;;;;5011164;28;20514;-74
2022/03/03 04:47:06;;;;;;;25.03;14.20;;;-1.50;99.90;;;;;;5011840;28;20504;-73
2022/03/03 04:49:32;;;;;;;23.20;14.67;;;-1.60;99.90;;;;;;5011607;28;20458;-74
2022/03/03 04:51:59;;;;;;;29.00;15.10;;;-1.60;99.90;;;;;;5011180;28;20461;-73
2022/03/03 04:54:27;;;;;;;29.10;15.30;;;-1.60;99.90;;;;;;5010844;28;20458;-73
2022/03/03 04:56:55;;;;;;;32.37;14.53;;;-1.70;99.90;;;;;;5011389;28;20539;-73
2022/03/03 04:59:23;;;;;;;32.47;16.47;;;-1.70;99.90;;;;;;5011550;28;20454;-74
2022/03/03 05:01:50;;;;;;;26.17;15.50;;;-1.70;99.90;;;;;;5011587;28;20529;-74
2022/03/03 05:04:17;;;;;;;42.77;16.07;;;-1.70;99.90;;;;;;5011450;28;20457;-74
2022/03/03 05:06:44;;;;;;;31.20;14.73;;;-1.60;99.90;;;;;;5010440;28;20520;-74
2022/03/03 05:09:11;;;;;;;27.57;15.03;;;-1.60;99.90;;;;;;5010624;28;20454;-74
2022/03/03 05:11:38;;;;;;;30.13;15.87;;;-1.60;99.90;;;;;;5010814;28;20870;-75
2022/03/03 05:14:05;;;;;;;29.47;14.93;;;-1.60;99.90;;;;;;5010087;28;20504;-74
2022/03/03 05:16:32;;;;;;;28.50;15.90;;;-1.60;99.90;;;;;;5009942;28;20520;-74
2022/03/03 05:18:59;;;;;;;24.77;14.20;;;-1.60;99.90;;;;;;5010611;28;20458;-74
2022/03/03 05:21:25;;;;;;;33.00;15.10;;;-1.60;99.90;;;;;;5010996;28;20449;-74
2022/03/03 05:23:53;;;;;;;38.30;15.90;;;-1.50;99.90;;;;;;5010327;28;20458;-74
2022/03/03 05:26:20;;;;;;;40.00;15.87;;;-1.60;99.90;;;;;;5010629;28;20474;-74
2022/03/03 05:28:47;;;;;;;30.53;15.37;;;-1.60;99.90;;;;;;5010384;28;20508;-74
2022/03/03 05:31:14;;;;;;;24.77;14.73;;;-1.60;99.90;;;;;;5009869;28;20462;-74
2022/03/03 05:33:41;;;;;;;27.83;15.10;;;-1.60;99.90;;;;;;5009742;28;20454;-74
2022/03/03 05:36:10;;;;;;;33.30;15.90;;;-1.60;99.90;;;;;;5010210;28;20985;-74
2022/03/03 05:38:38;;;;;;;27.73;14.43;;;-1.60;99.90;;;;;;5010350;28;20490;-74
2022/03/03 05:41:06;;;;;;;32.10;15.83;;;-1.60;99.90;;;;;;5009720;28;20521;-75
2022/03/03 05:43:34;;;;;;;28.20;15.87;;;-1.50;99.90;;;;;;5009018;28;20955;-74
2022/03/03 05:46:03;;;;;;;33.53;15.80;;;-1.50;99.90;;;;;;5008369;28;20470;-74
2022/03/03 05:48:30;;;;;;;29.67;15.27;;;-1.50;99.90;;;;;;5009495;28;20450;-74
2022/03/03 05:50:57;;;;;;;30.73;15.40;;;-1.50;99.90;;;;;;5009805;28;20446;-73
2022/03/03 05:53:24;;;;;;;25.43;14.40;;;-1.50;99.90;;;;;;5009194;28;20458;-73
2022/03/03 05:55:52;;;;;;;31.37;15.23;;;-1.50;99.90;;;;;;5008580;28;20466;-74
2022/03/03 05:58:21;;;;;;;30.37;14.50;;;-1.50;99.90;;;;;;5009090;28;20544;-74
2022/03/03 06:00:49;;;;;;;27.70;15.83;;;-1.50;99.90;;;;;;5009111;28;22138;-73
2022/03/03 06:03:19;;;;;;;31.77;16.87;;;-1.50;99.90;;;;;;5012803;28;20505;-73
2022/03/03 06:05:50;;;;;;;30.53;16.13;;;-1.50;99.90;;;;;;4978823;28;1007443;-73
2022/03/03 06:08:20;;;;;;;34.90;15.40;;;-1.50;99.90;;;;;;5014853;28;20214;-74
2022/03/03 06:10:53;;;;;;;31.30;16.30;;;-1.50;99.90;;;;;;5014064;28;21008;-73
2022/03/03 06:13:23;;;;;;;31.77;16.67;;;-1.40;99.90;;;;;;5013839;28;20454;-73
2022/03/03 06:15:50;;;;;;;39.97;15.30;;;-1.40;99.90;;;;;;5014030;28;20549;-74
2022/03/03 06:18:20;;;;;;;32.37;15.73;;;-1.40;99.90;;;;;;5014360;28;20493;-74
2022/03/03 06:20:46;;;;;;;30.10;16.10;;;-1.40;99.90;;;;;;5013725;28;20508;-74
2022/03/03 06:23:13;;;;;;;26.53;14.37;;;-1.40;99.90;;;;;;5013226;28;20446;-74
2022/03/03 06:25:40;;;;;;;27.60;15.27;;;-1.30;99.90;;;;;;5013368;28;21001;-74
2022/03/03 06:28:08;;;;;;;29.90;14.70;;;-1.30;99.90;;;;;;5013856;28;20485;-74
2022/03/03 06:30:35;;;;;;;29.90;15.10;;;-1.20;99.90;;;;;;5013632;28;20950;-74
2022/03/03 06:33:03;;;;;;;27.73;15.50;;;-1.00;99.90;;;;;;5013447;28;20512;-74
2022/03/03 06:35:36;;;;;;;29.67;14.57;;;-0.70;99.90;;;;;;5013455;28;20494;-73
2022/03/03 06:38:05;;;;;;;24.03;15.47;;;-0.30;99.90;;;;;;5013336;28;20481;-74
2022/03/03 06:40:31;;;;;;;27.37;15.20;;;0.00;99.90;;;;;;5007942;28;20826;-74
2022/03/03 06:43:00;;;;;;;38.00;14.80;;;0.30;99.90;;;;;;5013098;28;20446;-74
2022/03/03 06:45:27;;;;;;;26.50;13.87;;;0.70;99.90;;;;;;5013287;28;20521;-74
2022/03/03 06:47:54;;;;;;;25.17;13.43;;;1.20;99.90;;;;;;5013929;28;20504;-74
2022/03/03 06:50:21;;;;;;;21.83;13.13;;;1.70;99.90;;;;;;5013408;28;20454;-74
2022/03/03 06:52:50;;;;;;;25.93;14.50;;;2.30;99.90;;;;;;5013278;28;20451;-74
2022/03/03 06:55:20;;;;;;;29.53;14.17;;;2.80;99.90;;;;;;5012922;28;20529;-73
2022/03/03 06:57:49;;;;;;;23.57;13.43;;;3.20;99.90;;;;;;5012258;28;20478;-74
2022/03/03 07:00:19;;;;;;;22.03;12.73;;;3.50;99.90;;;;;;5012813;28;20501;-76
2022/03/03 07:02:47;;;;;;;28.43;14.47;;;3.80;99.90;;;;;;5012793;28;20958;-76
2022/03/03 07:05:14;;;;;;;26.03;14.00;;;4.10;99.90;;;;;;5012757;28;20573;-76
2022/03/03 07:07:42;;;;;;;24.47;13.53;;;4.50;99.90;;;;;;5013598;28;20602;-78
2022/03/03 07:10:11;;;;;;;27.47;13.63;;;4.90;99.90;;;;;;5012811;28;20450;-76
2022/03/03 07:12:38;;;;;;;20.80;13.10;;;5.20;99.90;;;;;;5012983;28;20458;-76
2022/03/03 07:15:06;;;;;;;26.73;14.33;;;5.70;99.90;;;;;;5012457;28;20454;-77
2022/03/03 07:17:44;;;;;;;20.20;12.90;;;6.00;99.90;;;;;;5012556;28;20482;-76
2022/03/03 07:20:15;;;;;;;21.40;13.40;;;6.20;99.90;;;;;;5010013;28;20458;-75
2022/03/03 07:22:54;;;;;;;20.90;13.93;;;6.60;99.90;;;;;;5004496;28;20466;-75
2022/03/03 07:25:27;;;;;;;24.20;14.57;;;7.10;99.90;;;;;;5009751;28;20609;-75
2022/03/03 07:27:57;;;;;;;18.03;12.90;;;7.30;99.90;;;;;;5010430;28;20442;-76
2022/03/03 07:30:24;;;;;;;26.73;13.97;;;7.70;99.90;;;;;;5010694;28;20536;-76
2022/03/03 07:32:59;;;;;;;23.60;14.37;;;8.00;99.90;;;;;;5012310;28;20453;-76
2022/03/03 07:35:26;;;;;;;23.33;14.03;;;8.40;99.90;;;;;;5011582;28;20500;-77
2022/03/03 07:37:57;;;;;;;22.80;13.40;;;8.90;99.90;;;;;;5011873;28;21018;-76
2022/03/03 07:40:28;;;;;;;28.07;14.43;;;9.30;99.90;;;;;;5012109;28;20504;-77
2022/03/03 07:42:55;;;;;;;25.83;13.70;;;9.40;99.90;;;;;;5011188;28;20459;-75
2022/03/03 07:45:22;;;;;;;25.20;14.90;;;9.60;99.90;;;;;;5010879;28;20470;-76
2022/03/03 07:47:50;;;;;;;22.87;15.50;;;9.70;99.90;;;;;;5012106;28;20509;-76
2022/03/03 07:50:16;;;;;;;22.60;14.10;;;9.80;99.90;;;;;;5011862;28;20478;-74
2022/03/03 07:52:45;;;;;;;27.70;14.17;;;10.00;99.90;;;;;;5008225;28;20485;-74
2022/03/03 07:55:12;;;;;;;26.00;14.90;;;10.10;99.90;;;;;;5010516;28;20994;-74
2022/03/03 07:57:45;;;;;;;21.70;14.17;;;10.10;99.90;;;;;;5011594;28;20454;-74
2022/03/03 08:00:14;;;;;;;28.73;14.57;;;10.20;99.90;;;;;;5011474;28;20458;-74
2022/03/03 08:02:43;;;;;;;26.73;14.80;;;10.00;99.90;;;;;;5004971;28;20465;-74
2022/03/03 08:05:11;;;;;;;21.07;13.80;;;9.70;99.90;;;;;;5011113;28;21103;-74
2022/03/03 08:07:43;;;;;;;33.40;15.60;;;9.20;99.90;;;;;;5010314;28;20501;-74
2022/03/03 08:10:11;;;;;;;26.87;15.87;;;8.80;99.90;;;;;;5008487;28;20465;-73
2022/03/03 08:12:39;;;;;;;23.90;16.23;;;8.50;99.90;;;;;;5012270;28;20450;-76
2022/03/03 08:15:09;;;;;;;25.30;13.47;;;8.50;99.90;;;;;;5010736;28;20457;-76
2022/03/03 08:17:37;;;;;;;28.93;15.60;;;8.40;99.90;;;;;;5011454;28;20537;-75
2022/03/03 08:20:06;;;;;;;28.50;16.53;;;8.30;99.90;;;;;;5010753;28;20516;-75
2022/03/03 08:22:33;;;;;;;26.53;14.97;;;8.10;99.90;;;;;;5011916;28;20479;-75
2022/03/03 08:25:00;;;;;;;24.80;15.23;;;8.00;99.90;;;;;;5010472;28;21032;-76
2022/03/03 08:27:28;;;;;;;22.83;14.50;;;7.90;99.90;;;;;;5011782;28;20462;-75
2022/03/03 08:29:55;;;;;;;24.87;15.67;;;8.00;99.90;;;;;;5010757;28;20442;-76
2022/03/03 08:32:26;;;;;;;23.20;15.43;;;8.20;99.90;;;;;;5011195;28;20450;-75
2022/03/03 08:35:02;;;;;;;28.50;14.90;;;8.30;99.90;;;;;;5010872;28;20457;-75
2022/03/03 08:37:32;;;;;;;22.90;16.40;;;8.30;99.90;;;;;;5009442;28;20450;-75
2022/03/03 08:40:02;;;;;;;25.57;14.57;;;8.30;99.90;;;;;;5010015;28;21065;-76
2022/03/03 08:42:34;;;;;;;26.67;15.40;;;8.40;99.90;;;;;;5011640;28;20454;-76
2022/03/03 08:45:03;;;;;;;29.27;17.33;;;8.50;99.90;;;;;;5010550;28;20473;-77
2022/03/03 08:47:32;;;;;;;29.23;15.40;;;8.60;99.90;;;;;;5009210;28;20461;-76
2022/03/03 08:50:00;;;;;;;25.67;16.10;;;8.70;99.90;;;;;;5011445;28;20446;-76
2022/03/03 08:52:27;;;;;;;25.30;15.90;;;9.00;99.90;;;;;;5010474;28;20457;-77
2022/03/03 08:54:54;;;;;;;26.63;15.63;;;9.20;99.90;;;;;;5010624;28;20459;-76
2022/03/03 08:57:21;;;;;;;35.50;16.80;;;9.20;99.90;;;;;;5010214;28;20450;-75
2022/03/03 08:59:48;;;;;;;29.30;16.27;;;9.00;99.90;;;;;;5010741;28;20488;-75
2022/03/03 09:02:17;;;;;;;27.63;15.97;;;8.90;99.90;;;;;;5009335;28;20454;-76
2022/03/03 09:04:47;;;;;;;27.03;16.60;;;9.00;99.90;;;;;;5010567;28;20955;-75
2022/03/03 09:07:13;;;;;;;32.07;16.13;;;9.10;99.90;;;;;;5010369;28;20454;-75
2022/03/03 09:09:40;;;;;;;28.73;16.93;;;9.00;99.90;;;;;;5011235;28;20465;-76
2022/03/03 09:12:08;;;;;;;28.37;16.77;;;9.00;99.90;;;;;;5009608;28;20485;-75
2022/03/03 09:14:35;;;;;;;31.43;16.67;;;8.90;99.90;;;;;;5010032;28;20458;-77
2022/03/03 09:17:02;;;;;;;27.07;16.27;;;9.20;99.90;;;;;;5010834;28;20466;-75
2022/03/03 09:19:29;;;;;;;24.30;15.27;;;9.60;99.90;;;;;;5010927;28;20493;-76
2022/03/03 09:21:57;;;;;;;26.07;16.13;;;9.90;99.90;;;;;;5010946;28;20454;-76
2022/03/03 09:24:24;;;;;;;21.17;15.63;;;10.00;99.90;;;;;;5010276;28;20455;-75
2022/03/03 09:26:51;;;;;;;29.53;16.87;;;9.90;99.90;;;;;;5010189;28;21204;-76
2022/03/03 09:29:19;;;;;;;29.47;16.50;;;9.90;99.90;;;;;;5010791;28;20452;-76
2022/03/03 09:31:46;;;;;;;23.70;15.87;;;10.00;99.90;;;;;;5010400;28;20508;-78
2022/03/03 09:34:14;;;;;;;27.83;16.03;;;10.30;99.90;;;;;;5009488;28;20512;-76
2022/03/03 09:36:41;;;;;;;21.27;15.23;;;10.70;99.90;;;;;;5010176;28;20524;-76
2022/03/03 09:39:09;;;;;;;23.43;15.30;;;11.20;99.90;;;;;;5010884;28;20496;-75
2022/03/03 09:41:36;;;;;;;31.80;16.83;;;11.40;99.90;;;;;;5011050;28;20450;-75
2022/03/03 09:44:03;;;;;;;21.70;15.07;;;11.80;99.90;;;;;;5009749;28;20959;-77
2022/03/03 09:46:35;;;;;;;22.63;15.83;;;11.90;99.70;;;;;;5009903;28;20482;-73
2022/03/03 09:49:03;;;;;;;27.93;16.33;;;12.00;99.80;;;;;;5010355;28;20450;-73
2022/03/03 09:51:30;;;;;;;28.67;16.33;;;12.30;99.00;;;;;;5010241;28;20990;-73
2022/03/03 09:53:57;;;;;;;26.70;16.80;;;12.40;98.50;;;;;;5009838;28;20464;-71
2022/03/03 09:56:25;;;;;;;21.87;15.00;;;12.50;99.40;;;;;;5010224;28;20505;-70
2022/03/03 09:58:52;;;;;;;25.53;15.07;;;12.70;97.30;;;;;;5010077;28;20487;-71
2022/03/03 10:01:19;;;;;;;21.53;14.87;;;12.80;96.60;;;;;;5009834;28;20462;-70
2022/03/03 10:03:47;;;;;;;24.23;16.43;;;12.70;96.30;;;;;;5010165;28;20462;-73
2022/03/03 10:06:14;;;;;;;26.37;15.60;;;12.60;95.60;;;;;;5010072;28;20481;-73
2022/03/03 10:08:41;;;;;;;23.50;15.80;;;12.30;96.20;;;;;;5011123;28;20457;-72
2022/03/03 10:11:09;;;;;;;20.67;14.73;;;12.30;96.00;;;;;;5009372;28;20454;-73
2022/03/03 10:13:47;;;;;;;25.20;15.60;;;12.40;96.50;;;;;;5009750;28;20883;-74
2022/03/03 10:16:21;;;;;;;21.07;14.10;;;12.70;98.70;;;;;;5010292;28;20474;-75
2022/03/03 10:18:53;;;;;;;23.07;15.77;;;13.00;99.90;;;;;;5010309;28;20608;-75
2022/03/03 10:21:20;;;;;;;22.30;14.67;;;13.40;99.10;;;;;;5010038;28;20458;-75
2022/03/03 10:23:47;;;;;;;22.57;15.73;;;13.90;97.70;;;;;;5009599;28;20442;-73
2022/03/03 10:26:13;;;;;;;18.80;13.83;;;14.20;96.70;;;;;;5007918;28;20465;-77
2022/03/03 10:28:40;;;;;;;23.33;15.20;;;14.60;99.90;;;;;;5011027;28;21008;-76
2022/03/03 10:31:09;;;;;;;23.13;15.23;;;14.90;96.90;;;;;;5009494;28;20461;-75
2022/03/03 10:33:38;;;;;;;23.20;14.47;;;15.30;96.50;;;;;;5009878;28;20454;-76
2022/03/03 10:36:11;;;;;;;28.33;15.47;;;15.50;95.40;;;;;;5008344;28;20807;-76
2022/03/03 10:38:52;;;;;;;25.03;17.40;;;15.60;94.00;;;;;;5009301;28;20517;-76
2022/03/03 10:41:44;;;;;;;27.43;16.27;;;15.50;93.00;;;;;;5009262;28;20838;-75
2022/03/03 10:44:13;;;;;;;30.57;16.60;;;15.40;94.50;;;;;;4996404;28;20474;-75
2022/03/03 10:47:00;;;;;;;29.43;16.83;;;15.50;94.00;;;;;;5009678;28;20528;-77
2022/03/03 10:49:27;;;;;;;29.57;16.50;;;15.40;93.20;;;;;;5012884;28;20429;-74
2022/03/03 10:51:54;;;;;;;25.00;15.87;;;15.50;92.90;;;;;;5013226;28;20451;-75
2022/03/03 10:54:21;;;;;;;26.50;17.37;;;15.70;92.40;;;;;;5012819;28;20464;-75
2022/03/03 10:56:50;;;;;;;23.40;15.33;;;15.90;91.70;;;;;;5012777;28;20444;-75
2022/03/03 10:59:23;;;;;;;19.10;15.03;;;15.90;95.90;;;;;;5013110;28;20530;-75
2022/03/03 11:01:53;;;;;;;23.00;15.37;;;16.00;93.00;;;;;;5013737;28;20955;-75
2022/03/03 11:04:23;;;;;;;21.00;15.07;;;16.10;91.50;;;;;;5013061;28;20891;-75
2022/03/03 11:06:53;;;;;;;21.33;14.43;;;16.20;92.00;;;;;;5013557;28;20536;-76
2022/03/03 11:09:20;;;;;;;18.20;13.40;;;16.30;88.80;;;;;;5012846;28;20482;-76
2022/03/03 11:11:47;;;;;;;18.10;12.30;;;16.00;79.00;;;;;;5012303;28;20437;-74
2022/03/03 11:14:14;;;;;;;17.50;13.10;;;15.50;79.90;;;;;;5011526;28;20695;-74
2022/03/03 11:16:41;;;;;;;17.90;12.87;;;15.50;78.20;;;;;;5012748;28;20445;-73
2022/03/03 11:19:10;;;;;;;24.70;13.90;;;15.60;74.30;;;;;;5012584;28;20457;-76
2022/03/03 11:21:39;;;;;;;16.57;12.27;;;15.80;77.00;;;;;;5013058;28;20458;-76
2022/03/03 11:24:08;;;;;;;18.73;13.20;;;15.90;78.00;;;;;;5011995;28;20541;-77
2022/03/03 11:26:42;;;;;;;21.97;13.80;;;15.90;77.10;;;;;;5013100;28;20470;-76
2022/03/03 11:29:12;;;;;;;18.93;12.90;;;15.90;79.60;;;;;;5012426;28;20450;-73
2022/03/03 11:31:40;;;;;;;20.23;13.00;;;15.80;75.40;;;;;;5011766;28;20908;-73
2022/03/03 11:34:30;;;;;;;22.63;14.97;;;15.50;79.00;;;;;;5011986;28;20463;-73
2022/03/03 11:37:02;;;;;;;21.30;13.40;;;15.70;80.20;;;;;;5013392;28;20928;-73
2022/03/03 11:39:37;;;;;;;18.93;13.47;;;15.60;77.60;;;;;;5013193;28;20486;-75
2022/03/03 11:42:35;;;;;;;19.13;14.20;;;15.80;77.90;;;;;;5012219;28;20446;-76
2022/03/03 11:45:18;;;;;;;26.50;13.60;;;15.80;78.00;;;;;;5011751;28;20454;-73
2022/03/03 11:47:47;;;;;;;27.50;14.93;;;15.50;81.20;;;;;;4994901;28;20436;-74
2022/03/03 11:50:24;;;;;;;19.20;14.13;;;15.40;79.20;;;;;;5012665;28;20450;-74
2022/03/03 11:52:53;;;;;;;19.83;14.43;;;15.70;80.40;;;;;;5011785;28;21028;-73
2022/03/03 11:55:35;;;;;;;19.70;13.73;;;15.80;78.80;;;;;;5012286;28;20478;-75
2022/03/03 11:58:05;;;;;;;22.63;14.23;;;16.00;77.70;;;;;;5012836;28;20450;-73
2022/03/03 12:00:33;;;;;;;22.10;13.60;;;16.10;75.10;;;;;;5011825;28;20463;-74
2022/03/03 12:03:02;;;;;;;20.10;14.30;;;16.20;78.40;;;;;;5011671;28;20454;-74
2022/03/03 12:05:45;;;;;;;21.40;14.70;;;16.30;77.30;;;;;;5011921;28;20486;-73
2022/03/03 12:08:34;;;;;;;20.73;13.50;;;16.30;77.70;;;;;;5012439;28;20436;-73
2022/03/03 12:11:13;;;;;;;21.80;14.70;;;16.10;76.80;;;;;;5010468;28;21051;-73
2022/03/03 12:13:48;;;;;;;21.73;14.07;;;16.30;76.30;;;;;;5012328;28;20460;-74
2022/03/03 12:16:28;;;;;;;23.27;14.90;;;16.00;73.50;;;;;;4999059;28;20455;-73
2022/03/03 12:19:07;;;;;;;22.73;15.50;;;15.90;78.10;;;;;;5012834;28;21060;-73
2022/03/03 12:21:37;;;;;;;19.30;12.53;;;16.40;79.30;;;;;;5011653;28;20512;-74
2022/03/03 12:24:31;;;;;;;21.30;14.93;;;16.80;72.10;;;;;;5005436;28;20512;-74
2022/03/03 12:27:18;;;;;;;25.47;16.83;;;17.00;72.00;;;;;;5012522;28;20532;-74
2022/03/03 12:29:52;;;;;;;22.30;14.27;;;16.80;73.60;;;;;;5012383;28;20625;-73
2022/03/03 12:32:40;;;;;;;22.33;15.30;;;16.90;74.70;;;;;;5014758;28;21033;-73
2022/03/03 12:35:12;;;;;;;19.70;14.07;;;17.00;72.60;;;;;;5011781;28;20455;-74
2022/03/03 12:37:45;;;;;;;19.23;14.67;;;17.20;72.80;;;;;;5012905;28;20458;-73
2022/03/03 12:40:14;;;;;;;17.13;14.07;;;17.10;71.90;;;;;;5012257;28;20540;-71